Terminal Aerodrome Forecast
Issued by NWS

Home | Current Version | Previous Version | Graphics & Text | Print | Product List | Glossary On
Versions: 1 2 3 4 5 6 7 8 9 10 11 12 13 14
000
FTUS43 KTOP 211731
TAFMHK
TAF
KMHK 211731Z 2118/2218 21018G26KT P6SM BKN035
     FM211900 23016G24KT P6SM VCSH OVC030
      TEMPO 2119/2121 3SM TSRA OVC020CB
     FM212100 27013G21KT P6SM VCSH OVC035
      TEMPO 2121/2123 3SM TSRA OVC020CB
     FM220000 34008KT P6SM BKN100
     FM221100 VRB03KT P6SM FEW250=

USA.gov is the U.S. government's official web portal to all federal, state and local government web resources and services.